Time;durP1;ratioP1;P1;durP2;ratioP2;P2;SDS_P1;SDS_P2;PMS_P1;PMS_P2;Temp;Humidity;BMP_temperature;BMP_pressure;BME280_temperature;BME280_humidity;BME280_pressure;Samples;Min_cycle;Max_cycle;Signal;HPM_P1;HPM_P2
2021/08/27 00:01:50;;;;;;;;;;;;;;;-144.99;94.07;52391.03;5085795;28;19974;-64
2021/08/27 00:04:17;;;;;;;;;;;;;;;-144.99;94.17;52431.78;5086974;28;20405;-64
2021/08/27 00:06:43;;;;;;;;;;;;;;;-144.99;94.25;52386.94;5077784;28;20440;-64
2021/08/27 00:09:09;;;;;;;;;;;;;;;-144.99;94.59;52403.25;5086186;28;20072;-64
2021/08/27 00:11:36;;;;;;;;;;;;;;;-144.99;94.30;52391.03;5088151;28;19983;-64
2021/08/27 00:14:02;;;;;;;;;;;;;;;-144.99;94.76;52358.41;5091491;28;19982;-64
2021/08/27 00:16:29;;;;;;;;;;;;;;;-144.99;94.70;52407.31;5091265;28;19992;-64
2021/08/27 00:18:56;;;;;;;;;;;;;;;-144.99;94.85;52395.09;5089169;28;20431;-65
2021/08/27 00:21:23;;;;;;;;;;;;;;;-144.99;94.84;52386.94;5089274;28;20316;-64
2021/08/27 00:23:49;;;;;;;;;;;;;;;-144.99;94.93;52421.59;5079941;28;20007;-64
2021/08/27 00:26:16;;;;;;;;;;;;;;;-144.99;95.15;52395.09;5088459;28;20085;-63
2021/08/27 00:28:42;;;;;;;;;;;;;;;-144.99;95.21;52391.03;5087567;28;20339;-63
2021/08/27 00:31:08;;;;;;;;;;;;;;;-144.99;95.58;52401.22;5087657;28;20005;-63
2021/08/27 00:33:35;;;;;;;;;;;;;;;-144.99;95.67;52423.63;5086421;28;20459;-63
2021/08/27 00:36:03;;;;;;;;;;;;;;;-144.99;95.63;52419.56;5088663;28;20228;-63
2021/08/27 00:38:29;;;;;;;;;;;;;;;-144.99;95.39;52376.75;5090960;28;20012;-64
2021/08/27 00:40:55;;;;;;;;;;;;;;;-144.99;95.39;52427.72;5089926;28;19977;-60
2021/08/27 00:43:22;;;;;;;;;;;;;;;-144.99;95.52;52399.19;5087833;28;19977;-60
2021/08/27 00:45:48;;;;;;;;;;;;;;;-144.99;95.51;52403.25;5091777;28;20030;-60
2021/08/27 00:48:15;;;;;;;;;;;;;;;-144.99;95.45;52395.09;5089157;28;19996;-60
2021/08/27 00:50:41;;;;;;;;;;;;;;;-144.99;95.64;52407.31;5088017;28;19965;-60
2021/08/27 00:53:09;;;;;;;;;;;;;;;-144.99;95.65;52407.31;5089680;28;19974;-60
2021/08/27 00:55:36;;;;;;;;;;;;;;;-144.99;95.72;52374.72;5089610;28;20370;-60
2021/08/27 00:58:02;;;;;;;;;;;;;;;-144.99;95.86;52399.19;5088780;28;20031;-61
2021/08/27 01:00:29;;;;;;;;;;;;;;;-144.99;95.75;52419.56;5086435;28;19976;-61
2021/08/27 01:02:55;;;;;;;;;;;;;;;-144.99;95.63;52378.78;5084350;28;19965;-61
2021/08/27 01:05:22;;;;;;;;;;;;;;;-144.99;95.55;52439.94;5082531;28;20428;-60
2021/08/27 01:07:51;;;;;;;;;;;;;;;-144.99;95.54;52386.94;5090734;28;20000;-60
2021/08/27 01:10:22;;;;;;;;;;;;;;;-144.99;95.52;52395.09;5088191;28;19983;-60
2021/08/27 01:12:55;;;;;;;;;;;;;;;-144.99;95.70;52419.56;5086975;28;19981;-60
2021/08/27 01:15:26;;;;;;;;;;;;;;;-144.99;95.43;52395.09;5091182;28;20000;-59
2021/08/27 01:17:55;;;;;;;;;;;;;;;-144.99;95.55;52395.09;5084392;28;20018;-60
2021/08/27 01:20:33;;;;;;;;;;;;;;;-144.99;95.35;52415.47;5090549;28;20352;-60
2021/08/27 01:23:03;;;;;;;;;;;;;;;-144.99;95.45;52399.19;5082565;28;20388;-60
2021/08/27 01:25:32;;;;;;;;;;;;;;;-144.99;95.32;52386.94;5085009;28;19981;-60
2021/08/27 01:27:59;;;;;;;;;;;;;;;-144.99;95.08;52411.41;5082447;28;19993;-61
2021/08/27 01:30:31;;;;;;;;;;;;;;;-144.99;94.97;52391.03;5089242;28;20049;-61
2021/08/27 01:33:00;;;;;;;;;;;;;;;-144.99;94.69;52411.41;5083475;28;19971;-60
2021/08/27 01:35:30;;;;;;;;;;;;;;;-144.99;94.72;52407.31;5088079;28;19971;-61
2021/08/27 01:37:57;;;;;;;;;;;;;;;-144.99;94.62;52415.47;5085195;28;20000;-60
2021/08/27 01:40:26;;;;;;;;;;;;;;;-144.99;94.38;52356.38;5090267;28;19978;-61
2021/08/27 01:42:52;;;;;;;;;;;;;;;-144.99;94.50;52421.59;5086834;28;19978;-60
2021/08/27 01:45:20;;;;;;;;;;;;;;;-144.99;94.35;52399.19;5089192;28;20065;-60
2021/08/27 01:47:46;;;;;;;;;;;;;;;-144.99;94.24;52403.25;5087935;28;20298;-60
2021/08/27 01:50:14;;;;;;;;;;;;;;;-144.99;94.27;52415.47;5089356;28;20447;-59
2021/08/27 01:52:42;;;;;;;;;;;;;;;-144.99;94.08;52399.19;5089793;28;20428;-59
2021/08/27 01:55:10;;;;;;;;;;;;;;;-144.99;94.03;52415.47;5085473;28;20030;-60
2021/08/27 01:57:37;;;;;;;;;;;;;;;-144.99;94.03;52419.56;5089831;28;20008;-60
2021/08/27 02:00:04;;;;;;;;;;;;;;;-144.99;94.02;52354.34;5087581;28;20065;-60
2021/08/27 02:02:32;;;;;;;;;;;;;;;-144.99;94.01;52399.19;5090015;28;20034;-64
2021/08/27 02:05:03;;;;;;;;;;;;;;;-144.99;94.00;52395.09;5087783;28;19979;-64
2021/08/27 02:07:29;;;;;;;;;;;;;;;-144.99;93.71;52362.50;5089509;28;19991;-64
2021/08/27 02:09:58;;;;;;;;;;;;;;;-144.99;93.60;52378.78;5089836;28;20381;-65
2021/08/27 02:12:25;;;;;;;;;;;;;;;-144.99;93.78;52393.06;5089561;28;20054;-65
2021/08/27 02:14:55;;;;;;;;;;;;;;;-144.99;93.91;52399.19;5089880;28;20295;-65
2021/08/27 02:17:21;;;;;;;;;;;;;;;-144.99;93.66;52378.78;5084935;28;19993;-64
2021/08/27 02:19:48;;;;;;;;;;;;;;;-144.99;93.69;52386.94;5084759;28;20080;-65
2021/08/27 02:22:16;;;;;;;;;;;;;;;-144.99;93.59;52378.78;5086321;28;20781;-65
2021/08/27 02:24:45;;;;;;;;;;;;;;;-144.99;93.54;52374.72;5084091;28;19972;-64
2021/08/27 02:27:13;;;;;;;;;;;;;;;-144.99;93.37;52370.63;5087562;28;20455;-63
2021/08/27 02:29:42;;;;;;;;;;;;;;;-144.99;93.04;52374.72;5087695;28;20413;-63
2021/08/27 02:32:11;;;;;;;;;;;;;;;-144.99;93.12;52386.94;5084267;28;20452;-64
2021/08/27 02:34:40;;;;;;;;;;;;;;;-144.99;92.94;52407.31;5084428;28;20628;-63
2021/08/27 02:37:07;;;;;;;;;;;;;;;-144.99;93.32;52429.75;5085586;28;19996;-63
2021/08/27 02:39:34;;;;;;;;;;;;;;;-144.99;93.33;52411.41;5088843;28;19970;-63
2021/08/27 02:42:00;;;;;;;;;;;;;;;-144.99;93.30;52393.06;5089640;28;19972;-63
2021/08/27 02:44:28;;;;;;;;;;;;;;;-144.99;93.13;52366.56;5089776;28;19965;-63
2021/08/27 02:46:55;;;;;;;;;;;;;;;-144.99;93.12;52415.47;5085658;28;19998;-64
2021/08/27 02:49:21;;;;;;;;;;;;;;;-144.99;93.00;52427.72;5088864;28;19998;-63
2021/08/27 02:51:53;;;;;;;;;;;;;;;-144.99;93.01;52382.88;5088213;28;19977;-63
2021/08/27 02:54:21;;;;;;;;;;;;;;;-144.99;93.13;52403.25;5083675;28;20207;-63
2021/08/27 02:56:50;;;;;;;;;;;;;;;-144.99;92.97;52393.06;5088587;28;20093;-63
2021/08/27 02:59:17;;;;;;;;;;;;;;;-144.99;92.87;52370.63;5080609;28;19996;-63
2021/08/27 03:01:50;;;;;;;;;;;;;;;-144.99;92.80;52386.94;5081847;28;19981;-63
2021/08/27 03:04:22;;;;;;;;;;;;;;;-144.99;92.96;52399.19;5086290;28;20014;-63
2021/08/27 03:06:51;;;;;;;;;;;;;;;-144.99;92.86;52413.44;5088633;28;19927;-63
2021/08/27 03:09:18;;;;;;;;;;;;;;;-144.99;92.89;52419.56;5087067;28;19987;-62
2021/08/27 03:11:46;;;;;;;;;;;;;;;-144.99;92.81;52386.94;5089566;28;20433;-62
2021/08/27 03:14:15;;;;;;;;;;;;;;;-144.99;92.36;52374.72;5089577;28;19964;-62
2021/08/27 03:16:44;;;;;;;;;;;;;;;-144.99;92.34;52386.94;5089122;28;19988;-63
2021/08/27 03:19:17;;;;;;;;;;;;;;;-144.99;92.06;52382.88;5083425;28;20018;-65
2021/08/27 03:21:46;;;;;;;;;;;;;;;-144.99;91.92;52399.19;5088479;28;19971;-65
2021/08/27 03:24:15;;;;;;;;;;;;;;;-144.99;92.01;52403.25;5083293;28;20418;-65
2021/08/27 03:26:43;;;;;;;;;;;;;;;-144.99;91.98;52348.22;5088128;28;19992;-65
2021/08/27 03:29:13;;;;;;;;;;;;;;;-144.99;91.80;52419.56;5088749;28;20361;-65
2021/08/27 03:31:40;;;;;;;;;;;;;;;-144.99;91.88;52378.78;5085562;28;19976;-63
2021/08/27 03:34:06;;;;;;;;;;;;;;;-144.99;91.89;52362.50;5081894;28;19981;-65
2021/08/27 03:36:34;;;;;;;;;;;;;;;-144.99;91.84;52386.94;5082997;28;19994;-63
2021/08/27 03:39:01;;;;;;;;;;;;;;;-144.99;92.00;52439.94;5088884;28;19987;-64
2021/08/27 03:41:29;;;;;;;;;;;;;;;-144.99;91.98;52386.94;5087224;28;19979;-63
2021/08/27 03:43:56;;;;;;;;;;;;;;;-144.99;91.82;52439.94;5087975;28;20436;-62
2021/08/27 03:46:23;;;;;;;;;;;;;;;-144.99;92.10;52354.34;5084939;28;20641;-62
2021/08/27 03:48:50;;;;;;;;;;;;;;;-144.99;92.28;52391.03;5092179;28;20010;-63
2021/08/27 03:51:17;;;;;;;;;;;;;;;-144.99;92.17;52423.63;5090261;28;20385;-61
2021/08/27 03:53:45;;;;;;;;;;;;;;;-144.99;92.22;52391.03;5092120;28;19989;-61
2021/08/27 03:56:12;;;;;;;;;;;;;;;-144.99;92.22;52439.94;5091921;28;19993;-59
2021/08/27 03:58:39;;;;;;;;;;;;;;;-144.99;92.25;52439.94;5085353;28;19980;-60
2021/08/27 04:01:05;;;;;;;;;;;;;;;-144.99;92.33;52358.41;5089802;28;20294;-60
2021/08/27 04:03:33;;;;;;;;;;;;;;;-144.99;92.44;52391.03;5093321;28;19992;-61
2021/08/27 04:06:00;;;;;;;;;;;;;;;-144.99;92.48;52358.41;5084529;28;20032;-61
2021/08/27 04:08:26;;;;;;;;;;;;;;;-144.99;92.47;52382.88;5086040;28;20101;-61
2021/08/27 04:10:54;;;;;;;;;;;;;;;-144.99;92.79;52370.63;5086905;28;19967;-61
2021/08/27 04:13:21;;;;;;;;;;;;;;;-144.99;92.85;52403.25;5090788;28;19984;-61
2021/08/27 04:15:47;;;;;;;;;;;;;;;-144.99;92.79;52415.47;5092298;28;19981;-62
2021/08/27 04:18:14;;;;;;;;;;;;;;;-144.99;93.12;52362.50;5090549;28;19994;-61
2021/08/27 04:20:40;;;;;;;;;;;;;;;-144.99;93.35;52399.19;5088627;28;19987;-61
2021/08/27 04:23:06;;;;;;;;;;;;;;;-144.99;93.74;52366.56;5089405;28;20443;-60
2021/08/27 04:25:33;;;;;;;;;;;;;;;-144.99;93.78;52399.19;5088092;28;20005;-60
2021/08/27 04:28:01;;;;;;;;;;;;;;;-144.99;93.67;52386.94;5092641;28;20001;-61
2021/08/27 04:30:27;;;;;;;;;;;;;;;-144.99;94.23;52364.53;5083756;28;20457;-61
2021/08/27 04:32:53;;;;;;;;;;;;;;;-144.99;94.43;52415.47;5088548;28;19971;-61
2021/08/27 04:35:20;;;;;;;;;;;;;;;-144.99;94.74;52419.56;5086099;28;20451;-61
2021/08/27 04:37:46;;;;;;;;;;;;;;;-144.99;94.77;52415.47;5090862;28;20037;-64
2021/08/27 04:40:13;;;;;;;;;;;;;;;-144.99;94.69;52370.63;5092064;28;19975;-62
2021/08/27 04:42:40;;;;;;;;;;;;;;;-144.99;94.83;52399.19;5088600;28;19978;-63
2021/08/27 04:45:08;;;;;;;;;;;;;;;-144.99;94.56;52382.88;5090460;28;19972;-62
2021/08/27 04:47:35;;;;;;;;;;;;;;;-144.99;94.28;52366.56;5091074;28;19985;-62
2021/08/27 04:50:01;;;;;;;;;;;;;;;-144.99;94.24;52374.72;5091921;28;19992;-62
2021/08/27 04:52:28;;;;;;;;;;;;;;;-144.99;94.36;52350.25;5085789;28;19956;-64
2021/08/27 04:54:54;;;;;;;;;;;;;;;-144.99;94.48;52399.19;5085508;28;19972;-63
2021/08/27 04:57:21;;;;;;;;;;;;;;;-144.99;94.50;52350.25;5089613;28;20031;-62
2021/08/27 04:59:48;;;;;;;;;;;;;;;-144.99;94.38;52370.63;5090569;28;19982;-62
2021/08/27 05:02:15;;;;;;;;;;;;;;;-144.99;94.60;52376.75;5090624;28;20559;-62
2021/08/27 05:04:42;;;;;;;;;;;;;;;-144.99;94.57;52348.22;5091613;28;19973;-62
2021/08/27 05:07:08;;;;;;;;;;;;;;;-144.99;94.56;52378.78;5087964;28;19998;-62
2021/08/27 05:09:35;;;;;;;;;;;;;;;-144.99;94.40;52407.31;5088859;28;19993;-63
2021/08/27 05:12:01;;;;;;;;;;;;;;;-144.99;94.36;52360.44;5091964;28;19970;-63
2021/08/27 05:14:27;;;;;;;;;;;;;;;-144.99;94.64;52395.09;5091816;28;19971;-60
2021/08/27 05:16:54;;;;;;;;;;;;;;;-144.99;94.74;52362.50;5090816;28;19994;-60
2021/08/27 05:19:22;;;;;;;;;;;;;;;-144.99;94.90;52386.94;5088402;28;20011;-60
2021/08/27 05:21:48;;;;;;;;;;;;;;;-144.99;95.49;52374.72;5090798;28;20330;-60
2021/08/27 05:24:14;;;;;;;;;;;;;;;-144.99;95.70;52376.75;5087382;28;19982;-59
2021/08/27 05:29:13;;;;;;;;;;;;;;;-144.99;96.32;52378.78;5077784;28;20416;-57
2021/08/27 05:31:39;;;;;;;;;;;;;;;-144.99;96.12;52419.56;5080826;28;20023;-57
2021/08/27 05:34:07;;;;;;;;;;;;;;;-144.99;96.56;52378.78;5082373;28;20393;-56
2021/08/27 05:36:35;;;;;;;;;;;;;;;-144.99;96.75;52378.78;5080589;28;19995;-63
2021/08/27 05:39:01;;;;;;;;;;;;;;;-144.99;96.52;52376.75;5088224;28;20037;-63
2021/08/27 05:41:28;;;;;;;;;;;;;;;-144.99;96.47;52399.19;5087066;28;19975;-63
2021/08/27 05:43:54;;;;;;;;;;;;;;;-144.99;96.61;52376.75;5090404;28;20287;-62
2021/08/27 05:46:20;;;;;;;;;;;;;;;-144.99;96.35;52378.78;5088513;28;19994;-64
2021/08/27 05:48:47;;;;;;;;;;;;;;;-144.99;96.15;52374.72;5090586;28;20216;-64
2021/08/27 05:51:13;;;;;;;;;;;;;;;-144.99;96.01;52370.63;5087296;28;20127;-64
2021/08/27 05:53:41;;;;;;;;;;;;;;;-144.99;95.91;52354.34;5078358;28;19999;-64
2021/08/27 05:56:07;;;;;;;;;;;;;;;-144.99;95.79;52407.31;5080631;28;20411;-64
2021/08/27 05:58:34;;;;;;;;;;;;;;;-144.99;95.86;52358.41;5081523;28;20429;-63
2021/08/27 06:01:00;;;;;;;;;;;;;;;-144.99;95.92;52350.25;5088464;28;19977;-61
2021/08/27 06:03:27;;;;;;;;;;;;;;;-144.99;96.05;52376.75;5080378;28;20428;-61
2021/08/27 06:05:53;;;;;;;;;;;;;;;-144.99;96.23;52358.41;5084407;28;19979;-61
2021/08/27 06:08:19;;;;;;;;;;;;;;;-144.99;96.27;52366.56;5082417;28;19989;-62
2021/08/27 06:10:47;;;;;;;;;;;;;;;-144.99;96.47;52307.47;5076520;28;20004;-60
2021/08/27 06:13:13;;;;;;;;;;;;;;;-144.99;96.66;52407.31;5077470;28;19984;-61
2021/08/27 06:15:43;;;;;;;;;;;;;;;-144.99;96.26;52366.56;5085166;28;20002;-64
2021/08/27 06:18:09;;;;;;;;;;;;;;;-144.99;96.60;52352.28;5086052;28;19991;-64
2021/08/27 06:20:35;;;;;;;;;;;;;;;-144.99;96.47;52378.78;5074650;28;20365;-63
2021/08/27 06:23:02;;;;;;;;;;;;;;;-144.99;97.07;52358.41;5079781;28;19972;-64
2021/08/27 06:25:28;;;;;;;;;;;;;;;-144.99;96.98;52350.25;5084780;28;20007;-64
2021/08/27 06:27:56;;;;;;;;;;;;;;;-144.99;96.73;52362.50;5083267;28;20013;-64
2021/08/27 06:30:23;;;;;;;;;;;;;;;-144.99;96.52;52362.50;5073095;28;19987;-65
2021/08/27 06:32:49;;;;;;;;;;;;;;;-144.99;96.15;52366.56;5086740;28;19977;-65
2021/08/27 06:35:16;;;;;;;;;;;;;;;-144.99;95.70;52333.94;5090063;28;19979;-64
2021/08/27 06:40:26;;;;;;;;;;;;;;;-144.99;95.98;52350.25;5086864;28;20497;-63
2021/08/27 06:42:52;;;;;;;;;;;;;;;-144.99;96.29;52338.03;5083290;28;19983;-63
2021/08/27 06:45:23;;;;;;;;;;;;;;;-144.99;96.17;52325.81;5082158;28;19970;-65
2021/08/27 06:47:49;;;;;;;;;;;;;;;-144.99;96.16;52374.72;5085616;28;20394;-61
2021/08/27 06:50:16;;;;;;;;;;;;;;;-144.99;96.06;52317.66;5078559;28;19988;-62
2021/08/27 06:52:42;;;;;;;;;;;;;;;-144.99;95.98;52378.78;5084302;28;19982;-65
2021/08/27 06:55:09;;;;;;;;;;;;;;;-144.99;96.42;52319.69;5084858;28;20002;-67
2021/08/27 06:57:36;;;;;;;;;;;;;;;-144.99;96.13;52342.09;5085476;28;19987;-59
2021/08/27 07:00:03;;;;;;;;;;;;;;;-144.99;95.44;52340.06;5081844;28;20363;-66
2021/08/27 07:02:31;;;;;;;;;;;;;;;-144.99;95.81;52342.09;5077787;28;20067;-64
2021/08/27 07:04:57;;;;;;;;;;;;;;;-144.99;95.65;52370.63;5083997;28;19979;-64
2021/08/27 07:07:23;;;;;;;;;;;;;;;-144.99;96.00;52344.16;5086465;28;20040;-64
2021/08/27 07:09:50;;;;;;;;;;;;;;;-144.99;96.60;52358.41;5079207;28;20011;-65
2021/08/27 07:12:16;;;;;;;;;;;;;;;-144.99;97.01;52350.25;5076817;28;20058;-64
2021/08/27 07:14:44;;;;;;;;;;;;;;;-144.99;96.73;52374.72;5074837;28;19979;-64
2021/08/27 07:17:10;;;;;;;;;;;;;;;-144.99;96.59;52358.41;5086471;28;20082;-64
2021/08/27 07:19:38;;;;;;;;;;;;;;;-144.99;96.70;52346.19;5073233;28;19995;-64
2021/08/27 07:22:04;;;;;;;;;;;;;;;-144.99;96.95;52386.94;5083842;28;20486;-64
2021/08/27 07:24:31;;;;;;;;;;;;;;;-144.99;97.23;52358.41;5075840;28;19973;-64
2021/08/27 07:26:57;;;;;;;;;;;;;;;-144.99;97.93;52366.56;5077003;28;19994;-64
2021/08/27 07:29:24;;;;;;;;;;;;;;;-144.99;98.21;52350.25;5087693;28;19975;-65
2021/08/27 07:31:50;;;;;;;;;;;;;;;-144.99;99.08;52327.84;5078774;28;19972;-64
2021/08/27 07:34:17;;;;;;;;;;;;;;;-144.99;99.08;52350.25;5072396;28;20039;-66
2021/08/27 07:36:44;;;;;;;;;;;;;;;-144.99;99.57;52325.81;5084101;28;19988;-64
2021/08/27 07:39:11;;;;;;;;;;;;;;;-144.99;99.85;52374.72;5080617;28;20011;-65
2021/08/27 07:41:37;;;;;;;;;;;;;;;-144.99;99.90;52386.94;5070599;28;20067;-66
2021/08/27 07:44:04;;;;;;;;;;;;;;;-144.99;100.00;52338.03;5088406;28;19991;-66
2021/08/27 07:46:31;;;;;;;;;;;;;;;-144.99;100.00;52350.25;5090276;28;20040;-65
2021/08/27 07:48:57;;;;;;;;;;;;;;;-144.99;100.00;52342.09;5089177;28;19986;-65
2021/08/27 07:51:23;;;;;;;;;;;;;;;-144.99;100.00;52372.69;5088555;28;19997;-65
2021/08/27 07:53:51;;;;;;;;;;;;;;;-144.99;100.00;52362.50;5090209;28;20125;-65
2021/08/27 07:56:18;;;;;;;;;;;;;;;-144.99;100.00;52358.41;5089581;28;19924;-65
2021/08/27 07:58:45;;;;;;;;;;;;;;;-144.99;100.00;52325.81;5089302;28;20071;-64
2021/08/27 08:01:12;;;;;;;;;;;;;;;-144.99;100.00;52333.94;5089240;28;19988;-66
2021/08/27 08:03:38;;;;;;;;;;;;;;;-144.99;100.00;52354.34;5089809;28;20434;-64
2021/08/27 08:06:04;;;;;;;;;;;;;;;-144.99;100.00;52329.88;5082284;28;20040;-66
2021/08/27 08:08:31;;;;;;;;;;;;;;;-144.99;100.00;52346.19;5086260;28;20072;-67
2021/08/27 08:10:59;;;;;;;;;;;;;;;-144.99;100.00;52358.41;5089100;28;20018;-65
2021/08/27 08:13:25;;;;;;;;;;;;;;;-144.99;100.00;52354.34;5089839;28;20031;-65
2021/08/27 08:15:51;;;;;;;;;;;;;;;-144.99;100.00;52309.50;5089583;28;20087;-65
2021/08/27 08:18:18;;;;;;;;;;;;;;;-144.99;100.00;52333.94;5089190;28;19992;-65
2021/08/27 08:20:44;;;;;;;;;;;;;;;-144.99;100.00;52293.19;5088365;28;20007;-65
2021/08/27 08:23:11;;;;;;;;;;;;;;;-144.99;100.00;52354.34;5081282;28;20020;-65
2021/08/27 08:25:37;;;;;;;;;;;;;;;-144.99;100.00;52325.81;5093848;28;19980;-65
2021/08/27 08:28:08;;;;;;;;;;;;;;;-144.99;100.00;52329.88;5095047;28;20004;-65
2021/08/27 08:30:34;;;;;;;;;;;;;;;-144.99;100.00;52342.09;5088263;28;20015;-66
2021/08/27 08:33:01;;;;;;;;;;;;;;;-144.99;100.00;52354.34;5084697;28;20235;-65
2021/08/27 08:35:27;;;;;;;;;;;;;;;-144.99;100.00;52321.72;5092568;28;19981;-64
2021/08/27 08:37:54;;;;;;;;;;;;;;;-144.99;100.00;52358.41;5084031;28;20043;-64
2021/08/27 08:40:20;;;;;;;;;;;;;;;-144.99;100.00;52331.91;5097145;28;19989;-65
2021/08/27 08:42:48;;;;;;;;;;;;;;;-144.99;100.00;52327.84;5097529;28;20047;-63
2021/08/27 08:45:16;;;;;;;;;;;;;;;-144.99;100.00;52364.53;5094211;28;20488;-64
2021/08/27 08:47:44;;;;;;;;;;;;;;;-144.99;100.00;52342.09;5093351;28;19996;-64
2021/08/27 08:50:10;;;;;;;;;;;;;;;-144.99;100.00;52358.41;5093038;28;20453;-64
2021/08/27 08:52:38;;;;;;;;;;;;;;;-144.99;100.00;52350.25;5094236;28;20457;-64
2021/08/27 08:55:05;;;;;;;;;;;;;;;-144.99;100.00;52366.56;5094347;28;19977;-65
2021/08/27 08:57:31;;;;;;;;;;;;;;;-144.99;100.00;52372.69;5092976;28;20105;-65
2021/08/27 08:59:58;;;;;;;;;;;;;;;-144.99;100.00;52350.25;5092829;28;20364;-65
2021/08/27 09:02:27;;;;;;;;;;;;;;;-144.99;100.00;52321.72;5093462;28;20478;-65
2021/08/27 09:04:54;;;;;;;;;;;;;;;-144.99;100.00;52338.03;5092903;28;20459;-64
2021/08/27 09:07:20;;;;;;;;;;;;;;;-144.99;100.00;52329.88;5074541;28;19999;-65
2021/08/27 09:09:46;;;;;;;;;;;;;;;-144.99;100.00;52358.41;5088041;28;19996;-64
2021/08/27 09:12:17;;;;;;;;;;;;;;;-144.99;100.00;52323.75;5092705;28;20031;-64
2021/08/27 09:14:54;;;;;;;;;;;;;;;-144.99;100.00;52358.41;5080306;28;19980;-65
2021/08/27 09:17:27;;;;;;;;;;;;;;;-144.99;100.00;52366.56;5078512;28;19994;-65
2021/08/27 09:19:55;;;;;;;;;;;;;;;-144.99;100.00;52407.31;5091508;28;19983;-65
2021/08/27 09:22:21;;;;;;;;;;;;;;;-144.99;100.00;52342.09;5091728;28;19981;-65
2021/08/27 09:25:03;;;;;;;;;;;;;;;-144.99;100.00;52344.16;5091976;28;19981;-65
2021/08/27 09:27:29;;;;;;;;;;;;;;;-144.99;100.00;52338.03;5091544;28;19971;-65
2021/08/27 09:29:55;;;;;;;;;;;;;;;-144.99;100.00;52333.94;5089332;28;19977;-66
2021/08/27 09:32:24;;;;;;;;;;;;;;;-144.99;100.00;52362.50;5075543;28;19973;-65
2021/08/27 09:35:07;;;;;;;;;;;;;;;-144.99;100.00;52309.50;5090434;28;19992;-65
2021/08/27 09:37:51;;;;;;;;;;;;;;;-144.99;100.00;52303.38;5091270;28;20548;-65
2021/08/27 09:40:18;;;;;;;;;;;;;;;-144.99;100.00;52309.50;5091499;28;19987;-65
2021/08/27 09:42:46;;;;;;;;;;;;;;;-144.99;100.00;52285.03;5091508;28;20435;-66
2021/08/27 09:45:13;;;;;;;;;;;;;;;-144.99;100.00;52264.66;5091860;28;19984;-66
2021/08/27 09:47:56;;;;;;;;;;;;;;;-144.99;98.21;52240.19;5091472;28;20025;-66
2021/08/27 09:50:25;;;;;;;;;;;;;;;-144.99;94.33;52256.50;5091202;28;20467;-66
2021/08/27 09:52:52;;;;;;;;;;;;;;;-144.99;91.64;52270.78;5091947;28;20456;-67
2021/08/27 09:55:18;;;;;;;;;;;;;;;-144.99;93.29;52280.97;5091245;28;19976;-65
2021/08/27 09:57:45;;;;;;;;;;;;;;;-144.99;92.73;52276.88;5090774;28;20534;-65
2021/08/27 10:00:17;;;;;;;;;;;;;;;-144.99;93.35;52285.03;5090352;28;19972;-65
2021/08/27 10:02:43;;;;;;;;;;;;;;;-144.99;94.48;52317.66;5089849;28;19985;-65
2021/08/27 10:05:11;;;;;;;;;;;;;;;-144.99;95.46;52327.84;5090348;28;20391;-66
2021/08/27 10:07:40;;;;;;;;;;;;;;;-144.99;97.20;52346.19;5076264;28;20025;-66
2021/08/27 10:10:08;;;;;;;;;;;;;;;-144.99;97.96;52311.53;5087281;28;20015;-66
2021/08/27 10:12:35;;;;;;;;;;;;;;;-144.99;98.61;52260.56;5087130;28;19925;-66
2021/08/27 10:15:03;;;;;;;;;;;;;;;-144.99;98.59;52317.66;5079680;28;19951;-66
2021/08/27 10:17:30;;;;;;;;;;;;;;;-144.99;98.94;52301.34;5090090;28;19973;-65
2021/08/27 10:19:56;;;;;;;;;;;;;;;-144.99;97.97;52264.66;5090233;28;19939;-66
2021/08/27 10:22:23;;;;;;;;;;;;;;;-144.99;96.39;52227.97;5090194;28;19924;-65
2021/08/27 10:24:50;;;;;;;;;;;;;;;-144.99;94.39;52240.19;5090732;28;19965;-66
2021/08/27 10:27:17;;;;;;;;;;;;;;;-144.99;93.15;52236.13;5090362;28;20066;-66
2021/08/27 10:29:48;;;;;;;;;;;;;;;-144.99;93.10;52236.13;5088142;28;20375;-66
2021/08/27 10:32:14;;;;;;;;;;;;;;;-144.99;90.26;52138.28;5074787;28;20031;-66
2021/08/27 10:34:41;;;;;;;;;;;;;;;-144.99;87.04;52215.75;5087958;28;20334;-66
2021/08/27 10:37:08;;;;;;;;;;;;;;;-144.99;80.36;52166.81;5089929;28;19975;-66
2021/08/27 10:39:36;;;;;;;;;;;;;;;-144.99;76.89;52130.13;5090381;28;19961;-66
2021/08/27 10:42:04;;;;;;;;;;;;;;;-144.99;73.84;52199.44;5090299;28;19955;-66
2021/08/27 10:44:47;;;;;;;;;;;;;;;-144.99;73.20;52095.50;5090647;28;19970;-66
2021/08/27 10:47:13;;;;;;;;;;;;;;;-144.99;72.65;52097.53;5089907;28;20367;-67
2021/08/27 10:49:57;;;;;;;;;;;;;;;-144.99;71.19;52052.69;5090188;28;19924;-67
2021/08/27 10:52:25;;;;;;;;;;;;;;;-144.99;69.37;52069.00;5089168;28;19930;-67
2021/08/27 10:55:21;;;;;;;;;;;;;;;-144.99;69.01;52034.34;5089591;28;20353;-67
2021/08/27 10:57:55;;;;;;;;;;;;;;;-144.99;67.10;52185.16;5077886;28;20353;-68
2021/08/27 11:00:31;;;;;;;;;;;;;;;-144.99;66.64;52089.38;5090032;28;20224;-68
2021/08/27 11:02:58;;;;;;;;;;;;;;;-144.99;65.64;52069.00;5089627;28;19927;-68
2021/08/27 11:05:34;;;;;;;;;;;;;;;-144.99;64.35;52158.66;5088160;28;19924;-67
2021/08/27 11:08:02;;;;;;;;;;;;;;;-144.99;64.06;52160.72;5076389;28;20452;-68
2021/08/27 11:10:28;;;;;;;;;;;;;;;-144.99;61.84;52130.13;5090314;28;20101;-67
2021/08/27 11:12:59;;;;;;;;;;;;;;;-144.99;61.32;52195.34;5083956;28;20423;-68
2021/08/27 11:15:26;;;;;;;;;;;;;;;-144.99;62.81;52101.59;5082775;28;19930;-68
2021/08/27 11:18:05;;;;;;;;;;;;;;;-144.99;60.82;52211.66;5089751;28;19924;-67
2021/08/27 11:20:31;;;;;;;;;;;;;;;-144.99;59.71;52032.31;5079598;28;19973;-68
2021/08/27 11:22:58;;;;;;;;;;;;;;;-144.99;60.08;52040.47;5090065;28;19928;-67
2021/08/27 11:25:25;;;;;;;;;;;;;;;-144.99;59.74;52016.00;5090457;28;19928;-66
2021/08/27 11:28:10;;;;;;;;;;;;;;;-144.99;59.25;52154.59;5089757;28;20323;-67
2021/08/27 11:30:36;;;;;;;;;;;;;;;-144.99;58.11;52203.50;5086338;28;19931;-66
2021/08/27 11:33:03;;;;;;;;;;;;;;;-144.99;57.35;51991.56;5072823;22;20278;-72
2021/08/27 11:35:30;;;;;;;;;;;;;;;-144.99;56.92;52195.34;5050064;28;19979;-73
2021/08/27 11:37:57;;;;;;;;;;;;;;;-144.99;55.89;52024.16;5049361;28;19972;-72
2021/08/27 11:40:24;;;;;;;;;;;;;;;-144.99;56.21;52154.59;5049342;28;19932;-72
2021/08/27 11:42:53;;;;;;;;;;;;;;;-144.99;56.59;52117.91;5049854;28;19960;-72
2021/08/27 11:45:23;;;;;;;;;;;;;;;-144.99;57.04;52199.44;5050130;28;20362;-73
2021/08/27 11:47:51;;;;;;;;;;;;;;;-144.99;57.90;52199.44;5049797;28;19947;-73
2021/08/27 11:50:22;;;;;;;;;;;;;;;-144.99;59.06;52244.28;5049961;28;19929;-72
2021/08/27 11:52:49;;;;;;;;;;;;;;;-144.99;60.14;52244.28;5023590;28;20400;-73
2021/08/27 11:55:16;;;;;;;;;;;;;;;-144.99;61.36;52252.44;5045772;28;19925;-73
2021/08/27 11:57:50;;;;;;;;;;;;;;;-144.99;62.56;52278.91;5049645;28;19924;-73
2021/08/27 12:00:18;;;;;;;;;;;;;;;-144.99;63.79;52285.03;5049105;28;20442;-73
2021/08/27 12:02:46;;;;;;;;;;;;;;;-144.99;65.44;52297.25;5049341;28;20015;-73
2021/08/27 12:05:12;;;;;;;;;;;;;;;-144.99;66.64;52252.44;5038976;28;20478;-73
2021/08/27 12:07:49;;;;;;;;;;;;;;;-144.99;67.66;52295.22;5029725;28;19971;-73
2021/08/27 12:10:15;;;;;;;;;;;;;;;-144.99;67.51;52254.47;5051246;28;20068;-73
2021/08/27 12:12:42;;;;;;;;;;;;;;;-144.99;66.82;52289.13;5044248;28;19959;-73
2021/08/27 12:15:11;;;;;;;;;;;;;;;-144.99;66.38;52260.56;5035957;28;20004;-73
2021/08/27 12:17:37;;;;;;;;;;;;;;;-144.99;64.63;52219.81;5045801;28;19968;-73
2021/08/27 12:20:07;;;;;;;;;;;;;;;-144.99;64.40;52048.63;5047035;28;20004;-73
2021/08/27 12:22:38;;;;;;;;;;;;;;;-144.99;61.29;52083.25;5052831;28;20088;-73
2021/08/27 12:25:04;;;;;;;;;;;;;;;-144.99;58.08;52162.75;5053541;28;19924;-73
2021/08/27 12:27:31;;;;;;;;;;;;;;;-144.99;56.85;52170.91;5053779;28;20306;-73
2021/08/27 12:30:04;;;;;;;;;;;;;;;-144.99;55.37;52219.81;5043691;28;19957;-73
2021/08/27 12:32:30;;;;;;;;;;;;;;;-144.99;55.58;52213.69;5035109;28;20039;-73
2021/08/27 12:34:57;;;;;;;;;;;;;;;-144.99;55.78;52217.78;5039711;28;19983;-73